McNair Village, Texas
Current Conditions -  °F | °C
As of 9:56 AM on Thursday 27 Nov 2014 (Local Time) from KHLR Reporting Station
Clear Clear  
Wind Chill: 12°   Ceiling: Unl
Heat Index: 12°   Visibility: 10mi
Dew Point: -3°   Wind: 6mph
Humidity: 37%   Direction: 30°NNE
Pressure: 30.54"   Gusts: NA
Location:  31.2151°N, 97.7405°W
Report Text: KHLR 271556Z AUTO 03005KT 10SM CLR 12/M03 A3054 RMK AO2 SLP375 T01171028 $
Loading
Personal Weather Stations






























Interactive Weather Map New forecast layout! Learn more

10-Day Weather Forecast

Advertisements
Track Severe Weather on mobile